sensor_id;sensor_type;location;lat;lon;timestamp;P1;durP1;ratioP1;P2;durP2;ratioP2
67930;SDS011;63902;52.000;5.954;2022-10-31T00:00:18;7.07;;;4.05;;
67930;SDS011;63902;52.000;5.954;2022-10-31T00:01:19;9.48;;;4.45;;
67930;SDS011;63902;52.000;5.954;2022-10-31T00:02:23;11.70;;;4.13;;
67930;SDS011;63902;52.000;5.954;2022-10-31T00:03:23;8.40;;;4.30;;
67930;SDS011;63902;52.000;5.954;2022-10-31T00:04:24;9.43;;;4.55;;
67930;SDS011;63902;52.000;5.954;2022-10-31T00:05:24;9.95;;;4.38;;
67930;SDS011;63902;52.000;5.954;2022-10-31T00:06:25;16.48;;;5.28;;
67930;SDS011;63902;52.000;5.954;2022-10-31T00:07:27;15.82;;;4.32;;
67930;SDS011;63902;52.000;5.954;2022-10-31T00:08:27;14.57;;;4.90;;
67930;SDS011;63902;52.000;5.954;2022-10-31T00:09:27;15.38;;;4.65;;
67930;SDS011;63902;52.000;5.954;2022-10-31T00:10:28;15.30;;;5.32;;
67930;SDS011;63902;52.000;5.954;2022-10-31T00:11:28;10.95;;;5.07;;
67930;SDS011;63902;52.000;5.954;2022-10-31T00:12:29;14.20;;;4.88;;
67930;SDS011;63902;52.000;5.954;2022-10-31T00:13:29;13.93;;;4.97;;
67930;SDS011;63902;52.000;5.954;2022-10-31T00:14:31;12.90;;;4.97;;
67930;SDS011;63902;52.000;5.954;2022-10-31T00:15:32;15.52;;;5.30;;
67930;SDS011;63902;52.000;5.954;2022-10-31T00:16:32;9.55;;;5.07;;
67930;SDS011;63902;52.000;5.954;2022-10-31T00:17:34;11.43;;;4.75;;
67930;SDS011;63902;52.000;5.954;2022-10-31T00:18:34;10.88;;;4.82;;
67930;SDS011;63902;52.000;5.954;2022-10-31T00:19:35;16.70;;;5.00;;
67930;SDS011;63902;52.000;5.954;2022-10-31T00:20:35;14.50;;;5.35;;
67930;SDS011;63902;52.000;5.954;2022-10-31T00:21:36;12.48;;;5.25;;
67930;SDS011;63902;52.000;5.954;2022-10-31T00:22:38;17.10;;;6.05;;
67930;SDS011;63902;52.000;5.954;2022-10-31T00:23:38;17.15;;;6.70;;
67930;SDS011;63902;52.000;5.954;2022-10-31T00:24:39;15.15;;;6.78;;
67930;SDS011;63902;52.000;5.954;2022-10-31T00:25:39;16.73;;;6.18;;
67930;SDS011;63902;52.000;5.954;2022-10-31T00:26:40;17.83;;;6.28;;
67930;SDS011;63902;52.000;5.954;2022-10-31T00:27:40;12.63;;;6.05;;
67930;SDS011;63902;52.000;5.954;2022-10-31T00:28:41;11.93;;;5.90;;
67930;SDS011;63902;52.000;5.954;2022-10-31T00:29:41;14.77;;;5.88;;
67930;SDS011;63902;52.000;5.954;2022-10-31T00:30:42;15.50;;;6.60;;
67930;SDS011;63902;52.000;5.954;2022-10-31T00:31:42;18.23;;;6.85;;
67930;SDS011;63902;52.000;5.954;2022-10-31T00:32:42;16.02;;;6.20;;
67930;SDS011;63902;52.000;5.954;2022-10-31T00:33:43;12.93;;;6.20;;
67930;SDS011;63902;52.000;5.954;2022-10-31T00:34:44;13.73;;;6.35;;
67930;SDS011;63902;52.000;5.954;2022-10-31T00:35:48;17.80;;;6.25;;
67930;SDS011;63902;52.000;5.954;2022-10-31T00:36:49;12.30;;;6.93;;
67930;SDS011;63902;52.000;5.954;2022-10-31T00:37:51;11.02;;;5.85;;
67930;SDS011;63902;52.000;5.954;2022-10-31T00:38:52;15.35;;;5.82;;
67930;SDS011;63902;52.000;5.954;2022-10-31T00:39:52;14.75;;;6.47;;
67930;SDS011;63902;52.000;5.954;2022-10-31T00:40:52;15.77;;;5.82;;
67930;SDS011;63902;52.000;5.954;2022-10-31T00:41:53;14.27;;;5.68;;
67930;SDS011;63902;52.000;5.954;2022-10-31T00:42:53;13.32;;;6.72;;
67930;SDS011;63902;52.000;5.954;2022-10-31T00:43:54;15.40;;;5.63;;
67930;SDS011;63902;52.000;5.954;2022-10-31T00:44:54;12.18;;;6.00;;
67930;SDS011;63902;52.000;5.954;2022-10-31T00:45:55;14.02;;;6.57;;
67930;SDS011;63902;52.000;5.954;2022-10-31T00:46:55;13.93;;;6.10;;
67930;SDS011;63902;52.000;5.954;2022-10-31T00:47:56;14.90;;;6.60;;
67930;SDS011;63902;52.000;5.954;2022-10-31T00:48:56;16.35;;;6.55;;
67930;SDS011;63902;52.000;5.954;2022-10-31T00:49:56;21.77;;;6.75;;
67930;SDS011;63902;52.000;5.954;2022-10-31T00:50:57;18.00;;;6.65;;
67930;SDS011;63902;52.000;5.954;2022-10-31T00:51:57;17.88;;;6.13;;
67930;SDS011;63902;52.000;5.954;2022-10-31T00:52:59;18.35;;;6.38;;
67930;SDS011;63902;52.000;5.954;2022-10-31T00:54:00;13.68;;;6.15;;
67930;SDS011;63902;52.000;5.954;2022-10-31T00:55:00;15.88;;;5.88;;
67930;SDS011;63902;52.000;5.954;2022-10-31T00:56:01;16.40;;;6.13;;
67930;SDS011;63902;52.000;5.954;2022-10-31T00:57:01;11.73;;;5.95;;
67930;SDS011;63902;52.000;5.954;2022-10-31T00:58:02;8.32;;;5.78;;
67930;SDS011;63902;52.000;5.954;2022-10-31T00:59:02;12.63;;;6.38;;
67930;SDS011;63902;52.000;5.954;2022-10-31T01:00:03;12.02;;;6.28;;
67930;SDS011;63902;52.000;5.954;2022-10-31T01:01:04;17.35;;;7.25;;
67930;SDS011;63902;52.000;5.954;2022-10-31T01:02:04;16.38;;;6.75;;
67930;SDS011;63902;52.000;5.954;2022-10-31T01:03:05;12.85;;;7.15;;
67930;SDS011;63902;52.000;5.954;2022-10-31T01:04:05;12.88;;;6.40;;
67930;SDS011;63902;52.000;5.954;2022-10-31T01:05:06;19.95;;;6.55;;
67930;SDS011;63902;52.000;5.954;2022-10-31T01:06:08;14.02;;;6.55;;
67930;SDS011;63902;52.000;5.954;2022-10-31T01:07:09;12.48;;;6.30;;
67930;SDS011;63902;52.000;5.954;2022-10-31T01:08:11;12.57;;;6.47;;
67930;SDS011;63902;52.000;5.954;2022-10-31T01:09:12;17.70;;;7.22;;
67930;SDS011;63902;52.000;5.954;2022-10-31T01:10:13;14.80;;;6.50;;
67930;SDS011;63902;52.000;5.954;2022-10-31T01:11:14;13.75;;;6.55;;
67930;SDS011;63902;52.000;5.954;2022-10-31T01:12:16;17.00;;;7.18;;
67930;SDS011;63902;52.000;5.954;2022-10-31T01:13:16;10.95;;;6.45;;
67930;SDS011;63902;52.000;5.954;2022-10-31T01:14:17;17.67;;;7.45;;
67930;SDS011;63902;52.000;5.954;2022-10-31T01:15:18;13.45;;;7.35;;
67930;SDS011;63902;52.000;5.954;2022-10-31T01:16:22;12.52;;;7.05;;
67930;SDS011;63902;52.000;5.954;2022-10-31T01:17:25;15.88;;;7.70;;
67930;SDS011;63902;52.000;5.954;2022-10-31T01:18:25;14.98;;;8.07;;
67930;SDS011;63902;52.000;5.954;2022-10-31T01:19:26;15.77;;;7.25;;
67930;SDS011;63902;52.000;5.954;2022-10-31T01:20:27;17.55;;;6.68;;
67930;SDS011;63902;52.000;5.954;2022-10-31T01:21:28;18.20;;;6.45;;
67930;SDS011;63902;52.000;5.954;2022-10-31T01:22:28;14.70;;;7.00;;
67930;SDS011;63902;52.000;5.954;2022-10-31T01:23:30;16.33;;;7.30;;
67930;SDS011;63902;52.000;5.954;2022-10-31T01:24:31;21.58;;;6.97;;
67930;SDS011;63902;52.000;5.954;2022-10-31T01:25:32;19.05;;;7.38;;
67930;SDS011;63902;52.000;5.954;2022-10-31T01:26:32;20.63;;;6.78;;
67930;SDS011;63902;52.000;5.954;2022-10-31T01:27:33;20.88;;;8.05;;
67930;SDS011;63902;52.000;5.954;2022-10-31T01:28:34;13.18;;;7.50;;
67930;SDS011;63902;52.000;5.954;2022-10-31T01:29:35;14.02;;;6.60;;
67930;SDS011;63902;52.000;5.954;2022-10-31T01:30:36;13.27;;;7.10;;
67930;SDS011;63902;52.000;5.954;2022-10-31T01:31:37;21.20;;;7.47;;
67930;SDS011;63902;52.000;5.954;2022-10-31T01:32:38;10.35;;;6.82;;
67930;SDS011;63902;52.000;5.954;2022-10-31T01:33:39;12.52;;;7.10;;
67930;SDS011;63902;52.000;5.954;2022-10-31T01:34:39;16.35;;;7.70;;
67930;SDS011;63902;52.000;5.954;2022-10-31T01:35:40;14.50;;;7.28;;
67930;SDS011;63902;52.000;5.954;2022-10-31T01:36:40;17.35;;;6.78;;
67930;SDS011;63902;52.000;5.954;2022-10-31T01:37:41;14.00;;;7.20;;
67930;SDS011;63902;52.000;5.954;2022-10-31T01:38:43;15.68;;;6.75;;
67930;SDS011;63902;52.000;5.954;2022-10-31T01:39:44;14.00;;;7.80;;
67930;SDS011;63902;52.000;5.954;2022-10-31T01:40:44;15.23;;;8.13;;
67930;SDS011;63902;52.000;5.954;2022-10-31T01:41:45;13.68;;;7.28;;
67930;SDS011;63902;52.000;5.954;2022-10-31T01:42:46;11.55;;;7.47;;
67930;SDS011;63902;52.000;5.954;2022-10-31T01:43:48;17.70;;;6.95;;
67930;SDS011;63902;52.000;5.954;2022-10-31T01:44:55;21.13;;;7.70;;
67930;SDS011;63902;52.000;5.954;2022-10-31T01:45:58;14.75;;;7.32;;
67930;SDS011;63902;52.000;5.954;2022-10-31T01:46:58;15.45;;;7.75;;
67930;SDS011;63902;52.000;5.954;2022-10-31T01:48:04;17.00;;;7.72;;
67930;SDS011;63902;52.000;5.954;2022-10-31T01:49:05;15.18;;;7.53;;
67930;SDS011;63902;52.000;5.954;2022-10-31T01:50:24;20.75;;;8.18;;
67930;SDS011;63902;52.000;5.954;2022-10-31T01:51:28;21.75;;;8.82;;
67930;SDS011;63902;52.000;5.954;2022-10-31T01:52:32;16.85;;;8.90;;
67930;SDS011;63902;52.000;5.954;2022-10-31T01:53:37;18.05;;;8.10;;
67930;SDS011;63902;52.000;5.954;2022-10-31T01:54:43;16.05;;;8.25;;
67930;SDS011;63902;52.000;5.954;2022-10-31T01:55:48;27.40;;;8.55;;
67930;SDS011;63902;52.000;5.954;2022-10-31T01:56:50;15.00;;;8.10;;
67930;SDS011;63902;52.000;5.954;2022-10-31T01:57:53;16.95;;;8.02;;
67930;SDS011;63902;52.000;5.954;2022-10-31T01:58:57;19.23;;;8.50;;
67930;SDS011;63902;52.000;5.954;2022-10-31T02:00:02;19.15;;;9.52;;
67930;SDS011;63902;52.000;5.954;2022-10-31T02:01:06;16.95;;;8.23;;
67930;SDS011;63902;52.000;5.954;2022-10-31T02:02:06;18.02;;;8.23;;
67930;SDS011;63902;52.000;5.954;2022-10-31T02:03:07;18.30;;;7.60;;
67930;SDS011;63902;52.000;5.954;2022-10-31T02:04:07;17.45;;;8.48;;
67930;SDS011;63902;52.000;5.954;2022-10-31T02:05:09;16.38;;;8.15;;
67930;SDS011;63902;52.000;5.954;2022-10-31T02:06:13;18.17;;;8.90;;
67930;SDS011;63902;52.000;5.954;2022-10-31T02:07:22;21.92;;;8.50;;
67930;SDS011;63902;52.000;5.954;2022-10-31T02:08:27;13.60;;;8.90;;
67930;SDS011;63902;52.000;5.954;2022-10-31T02:09:28;16.70;;;8.10;;
67930;SDS011;63902;52.000;5.954;2022-10-31T02:10:33;48.30;;;9.60;;
67930;SDS011;63902;52.000;5.954;2022-10-31T02:11:35;18.45;;;8.50;;
67930;SDS011;63902;52.000;5.954;2022-10-31T02:12:36;13.80;;;8.18;;
67930;SDS011;63902;52.000;5.954;2022-10-31T02:13:38;20.30;;;8.25;;
67930;SDS011;63902;52.000;5.954;2022-10-31T02:14:38;14.15;;;8.20;;
67930;SDS011;63902;52.000;5.954;2022-10-31T02:15:40;16.35;;;9.02;;
67930;SDS011;63902;52.000;5.954;2022-10-31T02:16:42;15.48;;;8.57;;
67930;SDS011;63902;52.000;5.954;2022-10-31T02:17:43;18.98;;;8.93;;
67930;SDS011;63902;52.000;5.954;2022-10-31T02:18:44;14.05;;;8.30;;
67930;SDS011;63902;52.000;5.954;2022-10-31T02:19:47;16.60;;;8.80;;
67930;SDS011;63902;52.000;5.954;2022-10-31T02:21:01;19.38;;;8.93;;
67930;SDS011;63902;52.000;5.954;2022-10-31T02:22:08;15.88;;;8.55;;
67930;SDS011;63902;52.000;5.954;2022-10-31T02:26:41;15.70;;;8.18;;
67930;SDS011;63902;52.000;5.954;2022-10-31T02:27:56;17.13;;;8.13;;
67930;SDS011;63902;52.000;5.954;2022-10-31T02:29:29;19.75;;;8.40;;
67930;SDS011;63902;52.000;5.954;2022-10-31T02:31:05;19.38;;;8.38;;
67930;SDS011;63902;52.000;5.954;2022-10-31T02:32:19;13.68;;;8.35;;
67930;SDS011;63902;52.000;5.954;2022-10-31T02:33:25;17.13;;;8.90;;
67930;SDS011;63902;52.000;5.954;2022-10-31T02:34:31;23.30;;;8.88;;
67930;SDS011;63902;52.000;5.954;2022-10-31T02:35:39;17.55;;;8.25;;
67930;SDS011;63902;52.000;5.954;2022-10-31T02:36:50;15.38;;;8.68;;
67930;SDS011;63902;52.000;5.954;2022-10-31T02:37:57;18.40;;;8.60;;
67930;SDS011;63902;52.000;5.954;2022-10-31T02:39:06;19.40;;;8.25;;
67930;SDS011;63902;52.000;5.954;2022-10-31T02:40:15;21.75;;;9.07;;
67930;SDS011;63902;52.000;5.954;2022-10-31T02:41:24;18.70;;;8.70;;
67930;SDS011;63902;52.000;5.954;2022-10-31T02:42:32;13.18;;;8.02;;
67930;SDS011;63902;52.000;5.954;2022-10-31T02:43:40;14.80;;;8.30;;
67930;SDS011;63902;52.000;5.954;2022-10-31T02:44:49;17.27;;;8.43;;
67930;SDS011;63902;52.000;5.954;2022-10-31T02:45:57;14.15;;;7.93;;
67930;SDS011;63902;52.000;5.954;2022-10-31T02:47:05;16.55;;;8.60;;
67930;SDS011;63902;52.000;5.954;2022-10-31T02:48:10;15.90;;;8.27;;
67930;SDS011;63902;52.000;5.954;2022-10-31T02:49:17;19.65;;;8.23;;
67930;SDS011;63902;52.000;5.954;2022-10-31T02:50:23;15.25;;;8.05;;
67930;SDS011;63902;52.000;5.954;2022-10-31T02:51:27;14.55;;;8.30;;
67930;SDS011;63902;52.000;5.954;2022-10-31T02:52:28;20.70;;;7.97;;
67930;SDS011;63902;52.000;5.954;2022-10-31T02:53:31;13.27;;;8.48;;
67930;SDS011;63902;52.000;5.954;2022-10-31T02:54:32;12.38;;;8.00;;
67930;SDS011;63902;52.000;5.954;2022-10-31T02:55:44;14.25;;;8.55;;
67930;SDS011;63902;52.000;5.954;2022-10-31T02:56:55;19.85;;;9.52;;
67930;SDS011;63902;52.000;5.954;2022-10-31T02:58:00;17.77;;;8.98;;
67930;SDS011;63902;52.000;5.954;2022-10-31T02:59:05;14.88;;;8.40;;
67930;SDS011;63902;52.000;5.954;2022-10-31T03:00:06;17.15;;;8.20;;
67930;SDS011;63902;52.000;5.954;2022-10-31T03:01:18;23.13;;;8.93;;
67930;SDS011;63902;52.000;5.954;2022-10-31T03:03:58;17.88;;;8.30;;
67930;SDS011;63902;52.000;5.954;2022-10-31T03:05:17;18.92;;;8.48;;
67930;SDS011;63902;52.000;5.954;2022-10-31T03:06:30;15.07;;;8.20;;
67930;SDS011;63902;52.000;5.954;2022-10-31T03:07:34;17.30;;;8.52;;
67930;SDS011;63902;52.000;5.954;2022-10-31T03:08:43;24.17;;;9.18;;
67930;SDS011;63902;52.000;5.954;2022-10-31T03:09:52;13.65;;;8.65;;
67930;SDS011;63902;52.000;5.954;2022-10-31T03:11:03;20.75;;;8.43;;
67930;SDS011;63902;52.000;5.954;2022-10-31T03:12:07;15.25;;;9.02;;
67930;SDS011;63902;52.000;5.954;2022-10-31T03:13:12;17.42;;;7.95;;
67930;SDS011;63902;52.000;5.954;2022-10-31T03:14:20;15.63;;;9.55;;
67930;SDS011;63902;52.000;5.954;2022-10-31T03:15:25;21.98;;;9.45;;
67930;SDS011;63902;52.000;5.954;2022-10-31T03:16:32;17.38;;;9.20;;
67930;SDS011;63902;52.000;5.954;2022-10-31T03:17:41;19.88;;;9.57;;
67930;SDS011;63902;52.000;5.954;2022-10-31T03:18:52;18.50;;;9.63;;
67930;SDS011;63902;52.000;5.954;2022-10-31T03:19:57;17.63;;;9.77;;
67930;SDS011;63902;52.000;5.954;2022-10-31T03:21:01;29.80;;;10.20;;
67930;SDS011;63902;52.000;5.954;2022-10-31T03:22:07;19.23;;;9.85;;
67930;SDS011;63902;52.000;5.954;2022-10-31T03:23:16;30.67;;;9.98;;
67930;SDS011;63902;52.000;5.954;2022-10-31T03:24:19;20.27;;;9.90;;
67930;SDS011;63902;52.000;5.954;2022-10-31T03:25:21;21.35;;;10.45;;
67930;SDS011;63902;52.000;5.954;2022-10-31T03:26:22;24.17;;;9.70;;
67930;SDS011;63902;52.000;5.954;2022-10-31T03:27:25;25.90;;;11.57;;
67930;SDS011;63902;52.000;5.954;2022-10-31T03:28:30;21.48;;;9.63;;
67930;SDS011;63902;52.000;5.954;2022-10-31T03:29:37;19.55;;;10.45;;
67930;SDS011;63902;52.000;5.954;2022-10-31T03:30:41;19.85;;;9.52;;
67930;SDS011;63902;52.000;5.954;2022-10-31T03:31:45;21.42;;;9.85;;
67930;SDS011;63902;52.000;5.954;2022-10-31T03:32:51;22.83;;;9.80;;
67930;SDS011;63902;52.000;5.954;2022-10-31T03:33:54;21.33;;;9.85;;
67930;SDS011;63902;52.000;5.954;2022-10-31T03:34:59;16.73;;;9.48;;
67930;SDS011;63902;52.000;5.954;2022-10-31T03:36:04;23.98;;;10.27;;
67930;SDS011;63902;52.000;5.954;2022-10-31T03:37:07;17.65;;;9.35;;
67930;SDS011;63902;52.000;5.954;2022-10-31T03:38:10;14.90;;;8.73;;
67930;SDS011;63902;52.000;5.954;2022-10-31T03:39:13;14.70;;;8.38;;
67930;SDS011;63902;52.000;5.954;2022-10-31T03:40:17;19.58;;;9.55;;
67930;SDS011;63902;52.000;5.954;2022-10-31T03:41:21;18.83;;;8.73;;
67930;SDS011;63902;52.000;5.954;2022-10-31T03:42:25;20.60;;;8.95;;
67930;SDS011;63902;52.000;5.954;2022-10-31T03:43:30;15.48;;;8.73;;
67930;SDS011;63902;52.000;5.954;2022-10-31T03:44:37;13.55;;;8.15;;
67930;SDS011;63902;52.000;5.954;2022-10-31T03:45:41;18.23;;;8.07;;
67930;SDS011;63902;52.000;5.954;2022-10-31T03:46:45;17.45;;;9.13;;
67930;SDS011;63902;52.000;5.954;2022-10-31T03:47:46;23.25;;;8.25;;
67930;SDS011;63902;52.000;5.954;2022-10-31T03:48:48;17.98;;;9.10;;
67930;SDS011;63902;52.000;5.954;2022-10-31T03:49:49;16.30;;;8.57;;
67930;SDS011;63902;52.000;5.954;2022-10-31T03:50:52;18.60;;;8.52;;
67930;SDS011;63902;52.000;5.954;2022-10-31T03:52:02;15.43;;;9.10;;
67930;SDS011;63902;52.000;5.954;2022-10-31T03:53:11;22.35;;;8.90;;
67930;SDS011;63902;52.000;5.954;2022-10-31T03:54:17;18.08;;;9.55;;
67930;SDS011;63902;52.000;5.954;2022-10-31T03:55:25;13.88;;;8.13;;
67930;SDS011;63902;52.000;5.954;2022-10-31T03:56:32;19.10;;;8.80;;
67930;SDS011;63902;52.000;5.954;2022-10-31T03:57:37;13.30;;;7.90;;
67930;SDS011;63902;52.000;5.954;2022-10-31T03:58:42;15.50;;;8.45;;
67930;SDS011;63902;52.000;5.954;2022-10-31T03:59:50;19.10;;;8.80;;
67930;SDS011;63902;52.000;5.954;2022-10-31T04:00:54;17.00;;;9.05;;
67930;SDS011;63902;52.000;5.954;2022-10-31T04:01:57;13.95;;;8.35;;
67930;SDS011;63902;52.000;5.954;2022-10-31T04:03:03;14.65;;;8.25;;
67930;SDS011;63902;52.000;5.954;2022-10-31T04:04:09;13.50;;;8.35;;
67930;SDS011;63902;52.000;5.954;2022-10-31T04:05:11;14.52;;;7.88;;
67930;SDS011;63902;52.000;5.954;2022-10-31T04:06:13;19.55;;;8.57;;
67930;SDS011;63902;52.000;5.954;2022-10-31T04:07:16;21.15;;;9.38;;
67930;SDS011;63902;52.000;5.954;2022-10-31T04:08:20;14.98;;;8.43;;
67930;SDS011;63902;52.000;5.954;2022-10-31T04:09:23;20.80;;;8.32;;
67930;SDS011;63902;52.000;5.954;2022-10-31T04:10:26;13.90;;;7.90;;
67930;SDS011;63902;52.000;5.954;2022-10-31T04:11:29;17.05;;;8.98;;
67930;SDS011;63902;52.000;5.954;2022-10-31T04:12:33;25.23;;;9.38;;
67930;SDS011;63902;52.000;5.954;2022-10-31T04:13:34;15.27;;;8.55;;
67930;SDS011;63902;52.000;5.954;2022-10-31T04:14:38;16.73;;;8.52;;
67930;SDS011;63902;52.000;5.954;2022-10-31T04:15:41;19.27;;;9.10;;
67930;SDS011;63902;52.000;5.954;2022-10-31T04:16:43;13.40;;;8.07;;
67930;SDS011;63902;52.000;5.954;2022-10-31T04:17:44;17.27;;;8.93;;
67930;SDS011;63902;52.000;5.954;2022-10-31T04:18:47;18.35;;;8.43;;
67930;SDS011;63902;52.000;5.954;2022-10-31T04:19:49;20.35;;;8.93;;
67930;SDS011;63902;52.000;5.954;2022-10-31T04:20:58;16.60;;;8.52;;
67930;SDS011;63902;52.000;5.954;2022-10-31T04:21:59;14.20;;;8.27;;
67930;SDS011;63902;52.000;5.954;2022-10-31T04:23:00;17.60;;;9.05;;
67930;SDS011;63902;52.000;5.954;2022-10-31T04:24:00;21.02;;;8.75;;
67930;SDS011;63902;52.000;5.954;2022-10-31T04:25:01;24.05;;;9.07;;
67930;SDS011;63902;52.000;5.954;2022-10-31T04:26:01;16.55;;;8.07;;
67930;SDS011;63902;52.000;5.954;2022-10-31T04:27:02;21.15;;;9.50;;
67930;SDS011;63902;52.000;5.954;2022-10-31T04:28:03;18.25;;;8.55;;
67930;SDS011;63902;52.000;5.954;2022-10-31T04:29:03;20.08;;;9.75;;
67930;SDS011;63902;52.000;5.954;2022-10-31T04:30:04;17.00;;;9.23;;
67930;SDS011;63902;52.000;5.954;2022-10-31T04:31:05;20.33;;;9.15;;
67930;SDS011;63902;52.000;5.954;2022-10-31T04:32:06;19.30;;;9.13;;
67930;SDS011;63902;52.000;5.954;2022-10-31T04:33:06;23.67;;;9.32;;
67930;SDS011;63902;52.000;5.954;2022-10-31T04:34:07;14.68;;;9.05;;
67930;SDS011;63902;52.000;5.954;2022-10-31T04:35:09;15.70;;;9.23;;
67930;SDS011;63902;52.000;5.954;2022-10-31T04:36:09;21.65;;;9.30;;
67930;SDS011;63902;52.000;5.954;2022-10-31T04:37:10;18.92;;;8.98;;
67930;SDS011;63902;52.000;5.954;2022-10-31T04:38:10;22.20;;;9.60;;
67930;SDS011;63902;52.000;5.954;2022-10-31T04:39:11;18.48;;;8.52;;
67930;SDS011;63902;52.000;5.954;2022-10-31T04:40:11;16.42;;;9.13;;
67930;SDS011;63902;52.000;5.954;2022-10-31T04:41:11;17.50;;;9.55;;
67930;SDS011;63902;52.000;5.954;2022-10-31T04:42:12;19.42;;;9.80;;
67930;SDS011;63902;52.000;5.954;2022-10-31T04:43:12;21.92;;;10.40;;
67930;SDS011;63902;52.000;5.954;2022-10-31T04:44:13;19.58;;;9.38;;
67930;SDS011;63902;52.000;5.954;2022-10-31T04:45:13;15.77;;;10.02;;
67930;SDS011;63902;52.000;5.954;2022-10-31T04:46:14;19.58;;;9.98;;
67930;SDS011;63902;52.000;5.954;2022-10-31T04:47:14;21.23;;;9.52;;
67930;SDS011;63902;52.000;5.954;2022-10-31T04:48:15;18.98;;;9.80;;
67930;SDS011;63902;52.000;5.954;2022-10-31T04:49:15;16.55;;;9.20;;
67930;SDS011;63902;52.000;5.954;2022-10-31T04:50:17;16.70;;;10.00;;
67930;SDS011;63902;52.000;5.954;2022-10-31T04:51:18;15.90;;;9.15;;
67930;SDS011;63902;52.000;5.954;2022-10-31T04:52:18;19.55;;;8.98;;
67930;SDS011;63902;52.000;5.954;2022-10-31T04:53:19;13.07;;;8.43;;
67930;SDS011;63902;52.000;5.954;2022-10-31T04:54:19;21.77;;;9.52;;
67930;SDS011;63902;52.000;5.954;2022-10-31T04:55:20;14.90;;;8.77;;
67930;SDS011;63902;52.000;5.954;2022-10-31T04:56:20;16.50;;;9.55;;
67930;SDS011;63902;52.000;5.954;2022-10-31T04:57:21;15.55;;;9.15;;
67930;SDS011;63902;52.000;5.954;2022-10-31T04:58:21;15.77;;;9.10;;
67930;SDS011;63902;52.000;5.954;2022-10-31T04:59:22;21.38;;;9.13;;
67930;SDS011;63902;52.000;5.954;2022-10-31T05:00:22;22.90;;;9.90;;
67930;SDS011;63902;52.000;5.954;2022-10-31T05:01:22;16.77;;;9.75;;
67930;SDS011;63902;52.000;5.954;2022-10-31T05:02:23;19.48;;;8.73;;
67930;SDS011;63902;52.000;5.954;2022-10-31T05:03:23;18.60;;;9.90;;
67930;SDS011;63902;52.000;5.954;2022-10-31T05:04:24;17.42;;;10.15;;
67930;SDS011;63902;52.000;5.954;2022-10-31T05:05:26;16.35;;;9.38;;
67930;SDS011;63902;52.000;5.954;2022-10-31T05:06:27;18.45;;;9.80;;
67930;SDS011;63902;52.000;5.954;2022-10-31T05:07:28;19.73;;;9.38;;
67930;SDS011;63902;52.000;5.954;2022-10-31T05:08:28;18.45;;;9.63;;
67930;SDS011;63902;52.000;5.954;2022-10-31T05:09:29;19.80;;;11.00;;
67930;SDS011;63902;52.000;5.954;2022-10-31T05:10:30;25.30;;;9.85;;
67930;SDS011;63902;52.000;5.954;2022-10-31T05:11:30;21.40;;;10.43;;
67930;SDS011;63902;52.000;5.954;2022-10-31T05:12:31;24.23;;;10.52;;
67930;SDS011;63902;52.000;5.954;2022-10-31T05:13:31;17.67;;;10.50;;
67930;SDS011;63902;52.000;5.954;2022-10-31T05:14:32;25.85;;;10.98;;
67930;SDS011;63902;52.000;5.954;2022-10-31T05:15:32;18.42;;;10.52;;
67930;SDS011;63902;52.000;5.954;2022-10-31T05:16:33;18.73;;;10.77;;
67930;SDS011;63902;52.000;5.954;2022-10-31T05:17:33;34.17;;;11.07;;
67930;SDS011;63902;52.000;5.954;2022-10-31T05:18:34;21.20;;;11.32;;
67930;SDS011;63902;52.000;5.954;2022-10-31T05:19:34;17.75;;;10.75;;
67930;SDS011;63902;52.000;5.954;2022-10-31T05:20:36;22.42;;;10.63;;
67930;SDS011;63902;52.000;5.954;2022-10-31T05:21:36;27.33;;;11.90;;
67930;SDS011;63902;52.000;5.954;2022-10-31T05:22:41;28.50;;;12.07;;
67930;SDS011;63902;52.000;5.954;2022-10-31T05:23:42;27.80;;;12.13;;
67930;SDS011;63902;52.000;5.954;2022-10-31T05:24:42;22.23;;;11.15;;
67930;SDS011;63902;52.000;5.954;2022-10-31T05:25:42;24.80;;;11.20;;
67930;SDS011;63902;52.000;5.954;2022-10-31T05:26:43;20.58;;;11.60;;
67930;SDS011;63902;52.000;5.954;2022-10-31T05:27:44;25.52;;;11.77;;
67930;SDS011;63902;52.000;5.954;2022-10-31T05:28:45;28.13;;;12.30;;
67930;SDS011;63902;52.000;5.954;2022-10-31T05:29:46;21.05;;;11.13;;
67930;SDS011;63902;52.000;5.954;2022-10-31T05:30:47;24.58;;;11.68;;
67930;SDS011;63902;52.000;5.954;2022-10-31T05:31:47;21.73;;;12.55;;
67930;SDS011;63902;52.000;5.954;2022-10-31T05:32:48;19.60;;;11.52;;
67930;SDS011;63902;52.000;5.954;2022-10-31T05:33:50;26.88;;;11.75;;
67930;SDS011;63902;52.000;5.954;2022-10-31T05:34:50;20.80;;;11.00;;
67930;SDS011;63902;52.000;5.954;2022-10-31T05:35:52;20.50;;;11.77;;
67930;SDS011;63902;52.000;5.954;2022-10-31T05:36:52;25.80;;;12.43;;
67930;SDS011;63902;52.000;5.954;2022-10-31T05:37:53;28.58;;;12.63;;
67930;SDS011;63902;52.000;5.954;2022-10-31T05:38:53;22.55;;;12.48;;
67930;SDS011;63902;52.000;5.954;2022-10-31T05:39:54;29.30;;;12.40;;
67930;SDS011;63902;52.000;5.954;2022-10-31T05:40:55;24.15;;;12.13;;
67930;SDS011;63902;52.000;5.954;2022-10-31T05:41:55;28.85;;;13.40;;
67930;SDS011;63902;52.000;5.954;2022-10-31T05:42:56;23.98;;;11.13;;
67930;SDS011;63902;52.000;5.954;2022-10-31T05:43:57;27.50;;;11.93;;
67930;SDS011;63902;52.000;5.954;2022-10-31T05:44:57;28.17;;;13.15;;
67930;SDS011;63902;52.000;5.954;2022-10-31T05:45:58;27.55;;;12.43;;
67930;SDS011;63902;52.000;5.954;2022-10-31T05:46:58;20.90;;;12.05;;
67930;SDS011;63902;52.000;5.954;2022-10-31T05:47:59;23.45;;;11.63;;
67930;SDS011;63902;52.000;5.954;2022-10-31T05:49:01;22.08;;;12.23;;
67930;SDS011;63902;52.000;5.954;2022-10-31T05:50:01;35.38;;;12.32;;
67930;SDS011;63902;52.000;5.954;2022-10-31T05:51:03;24.40;;;12.07;;
67930;SDS011;63902;52.000;5.954;2022-10-31T05:52:03;22.88;;;11.18;;
67930;SDS011;63902;52.000;5.954;2022-10-31T05:53:04;21.52;;;11.50;;
67930;SDS011;63902;52.000;5.954;2022-10-31T05:54:05;23.63;;;12.10;;
67930;SDS011;63902;52.000;5.954;2022-10-31T05:55:05;21.00;;;11.23;;
67930;SDS011;63902;52.000;5.954;2022-10-31T05:56:06;24.02;;;11.68;;
67930;SDS011;63902;52.000;5.954;2022-10-31T05:57:07;22.50;;;12.27;;
67930;SDS011;63902;52.000;5.954;2022-10-31T05:58:07;24.13;;;12.30;;
67930;SDS011;63902;52.000;5.954;2022-10-31T05:59:08;27.10;;;12.52;;
67930;SDS011;63902;52.000;5.954;2022-10-31T06:00:09;24.42;;;11.65;;
67930;SDS011;63902;52.000;5.954;2022-10-31T06:01:10;24.45;;;12.38;;
67930;SDS011;63902;52.000;5.954;2022-10-31T06:02:10;27.65;;;12.88;;
67930;SDS011;63902;52.000;5.954;2022-10-31T06:03:10;30.63;;;13.52;;
67930;SDS011;63902;52.000;5.954;2022-10-31T06:04:11;25.52;;;13.55;;
67930;SDS011;63902;52.000;5.954;2022-10-31T06:05:11;21.98;;;12.60;;
67930;SDS011;63902;52.000;5.954;2022-10-31T06:06:14;23.05;;;12.35;;
67930;SDS011;63902;52.000;5.954;2022-10-31T06:07:14;29.48;;;13.52;;
67930;SDS011;63902;52.000;5.954;2022-10-31T06:08:14;19.95;;;12.73;;
67930;SDS011;63902;52.000;5.954;2022-10-31T06:09:15;30.80;;;14.57;;
67930;SDS011;63902;52.000;5.954;2022-10-31T06:10:15;30.17;;;13.40;;
67930;SDS011;63902;52.000;5.954;2022-10-31T06:11:16;24.38;;;12.68;;
67930;SDS011;63902;52.000;5.954;2022-10-31T06:12:16;30.42;;;13.85;;
67930;SDS011;63902;52.000;5.954;2022-10-31T06:13:17;23.50;;;12.85;;
67930;SDS011;63902;52.000;5.954;2022-10-31T06:14:17;21.48;;;13.05;;
67930;SDS011;63902;52.000;5.954;2022-10-31T06:15:18;22.42;;;12.35;;